Time;durP1;ratioP1;P1;durP2;ratioP2;P2;SDS_P1;SDS_P2;PMS_P1;PMS_P2;Temp;Humidity;BMP_temperature;BMP_pressure;BME280_temperature;BME280_humidity;BME280_pressure;Samples;Min_cycle;Max_cycle;Signal;HPM_P1;HPM_P2
2022/12/27 00:02:10;;;;;;;85.50;20.47;;;7.00;99.90;;;4.74;100.00;100471.81;10532836;28;20515;-83
2022/12/27 00:07:13;;;;;;;101.40;21.97;;;7.00;99.90;;;4.69;100.00;100448.47;10508277;28;20113;-87
2022/12/27 00:12:16;;;;;;;88.77;22.80;;;7.00;99.90;;;4.69;100.00;100450.28;10523988;28;20056;-86
2022/12/27 00:17:20;;;;;;;75.87;19.40;;;7.00;99.90;;;4.68;100.00;100443.31;10532199;28;20056;-86
2022/12/27 00:22:23;;;;;;;85.50;18.00;;;6.90;99.90;;;4.65;100.00;100449.66;10552267;28;20110;-83
2022/12/27 00:27:26;;;;;;;56.77;16.17;;;6.90;99.90;;;4.61;100.00;100450.88;10542275;28;20060;-83
2022/12/27 00:32:29;;;;;;;55.80;15.73;;;6.90;99.90;;;4.61;100.00;100447.41;10521976;28;20063;-82
2022/12/27 00:37:32;;;;;;;63.87;17.40;;;6.90;99.90;;;4.61;100.00;100450.03;10535257;28;20060;-83
2022/12/27 00:42:35;;;;;;;70.17;16.50;;;6.90;99.90;;;4.56;100.00;100430.22;10526151;28;20057;-83
2022/12/27 00:47:39;;;;;;;47.13;16.67;;;6.80;99.90;;;4.57;100.00;100423.16;10577747;28;20067;-84
2022/12/27 00:52:42;;;;;;;58.07;19.27;;;6.80;99.90;;;4.60;100.00;100406.25;10503620;28;20655;-84
2022/12/27 00:57:45;;;;;;;59.73;19.27;;;6.80;99.90;;;4.61;100.00;100413.19;10532010;28;20071;-87
2022/12/27 01:02:48;;;;;;;63.77;17.83;;;6.90;99.90;;;4.57;100.00;100428.41;10540060;28;20056;-87
2022/12/27 01:07:51;;;;;;;13.37;5.80;;;6.80;99.90;;;5.06;100.00;100429.66;10523714;28;20056;-86
2022/12/27 01:12:55;;;;;;;10.07;5.43;;;7.10;99.90;;;5.69;100.00;100400.63;10515211;28;20060;-87
2022/12/27 01:17:58;;;;;;;7.73;4.63;;;7.70;99.90;;;6.06;100.00;100395.72;10516176;28;20064;-86
2022/12/27 01:23:01;;;;;;;8.63;3.17;;;8.20;99.90;;;6.41;100.00;100392.56;10544610;28;20059;-88
2022/12/27 01:28:04;;;;;;;3.63;2.30;;;8.50;99.90;;;6.76;100.00;100388.59;10529090;28;20056;-86
2022/12/27 01:33:07;;;;;;;3.20;1.47;;;8.80;99.90;;;7.11;100.00;100388.88;10549508;28;20060;-86
2022/12/27 01:38:10;;;;;;;1.67;0.87;;;9.20;99.90;;;7.48;100.00;100391.56;10551553;28;20134;-87
2022/12/27 01:43:18;;;;;;;1.30;0.67;;;9.50;99.90;;;7.87;100.00;100378.22;10511544;28;20060;-88
2022/12/27 01:48:23;;;;;;;1.80;0.60;;;9.90;99.90;;;8.19;100.00;100372.47;10532363;28;20057;-84
2022/12/27 01:53:37;;;;;;;1.50;0.60;;;10.20;99.90;;;8.39;100.00;100381.16;10530832;28;20058;-84
2022/12/27 01:58:51;;;;;;;1.20;0.60;;;10.40;99.90;;;8.52;100.00;100372.88;10525385;28;20068;-84
2022/12/27 02:04:19;;;;;;;1.70;0.60;;;10.60;99.90;;;8.65;100.00;100375.97;10532412;28;20401;-84
2022/12/27 02:09:47;;;;;;;0.80;0.53;;;10.80;99.90;;;8.75;100.00;100374.06;10522603;28;20090;-85
2022/12/27 02:14:50;;;;;;;1.37;0.53;;;10.90;99.90;;;8.75;100.00;100376.72;10506427;28;20052;-84
2022/12/27 02:20:15;;;;;;;1.10;0.50;;;11.00;99.90;;;8.70;100.00;100389.63;10548076;28;20423;-85
2022/12/27 02:26:01;;;;;;;1.17;0.50;;;11.00;99.90;;;8.64;100.00;100387.56;10536530;28;20056;-84
2022/12/27 02:31:40;;;;;;;2.17;0.67;;;10.90;99.90;;;8.78;100.00;100384.38;10551355;28;20063;-84
2022/12/27 02:36:45;;;;;;;1.60;0.70;;;10.90;99.90;;;8.91;97.96;100380.50;10521269;28;20059;-85
2022/12/27 02:53:11;;;;;;;2.33;1.03;;;11.00;99.90;;;8.79;95.08;100370.16;10541583;27;20528;-90
2022/12/27 02:58:29;;;;;;;2.23;0.90;;;10.90;99.90;;;8.75;94.52;100376.72;10560819;28;20059;-86
2022/12/27 03:04:17;;;;;;;2.07;1.20;;;10.90;99.90;;;8.72;93.97;100389.44;10529383;28;20060;-85
2022/12/27 03:15:55;;;;;;;3.67;1.33;;;10.70;99.90;;;8.52;93.14;100397.56;10546700;28;20056;-86
2022/12/27 03:26:25;;;;;;;2.23;0.87;;;10.60;99.90;;;8.46;92.19;100400.78;10550621;28;20051;-86
2022/12/27 03:43:11;;;;;;;2.37;1.27;;;10.60;99.90;;;8.42;90.73;100423.25;10547651;28;20053;-87
2022/12/27 03:48:21;;;;;;;3.83;1.40;;;10.50;99.90;;;8.45;90.38;100432.69;10523181;28;20061;-84
2022/12/27 03:53:35;;;;;;;3.27;1.23;;;10.50;99.90;;;8.43;89.96;100437.31;10511993;28;20063;-83
2022/12/27 03:58:38;;;;;;;3.50;1.50;;;10.50;99.90;;;8.33;90.15;100442.63;10541520;28;20067;-89
2022/12/27 04:03:42;;;;;;;4.77;1.63;;;10.40;99.90;;;8.25;89.85;100440.72;10533643;28;20060;-89
2022/12/27 04:35:32;;;;;;;4.50;2.42;;;10.40;99.90;;;8.27;87.40;100481.13;10540907;28;20064;-82
2022/12/27 04:56:39;;;;;;;4.10;2.72;;;10.40;99.90;;;8.37;86.15;100509.41;10543526;28;20060;-88
2022/12/27 05:17:51;;;;;;;3.03;1.70;;;10.40;99.90;;;8.24;85.56;100554.72;10533293;28;20146;-86
2022/12/27 05:28:16;;;;;;;3.35;1.75;;;10.30;99.90;;;8.08;86.18;100562.41;10535616;28;20067;-86
2022/12/27 05:33:19;;;;;;;2.80;1.67;;;10.20;99.90;;;8.07;86.31;100556.28;10555290;28;20704;-89
2022/12/27 05:38:21;;;;;;;2.80;1.33;;;10.20;99.90;;;8.01;86.55;100568.28;10553243;28;20076;-88
2022/12/27 05:43:26;;;;;;;2.50;1.33;;;10.10;99.90;;;7.90;86.79;100579.03;10542331;28;20059;-89
2022/12/27 05:48:29;;;;;;;2.33;1.63;;;10.00;99.90;;;7.86;87.03;100588.25;10516101;28;20071;-89
2022/12/27 05:53:32;;;;;;;89.33;35.73;;;10.00;99.90;;;7.83;87.44;100590.31;10502292;28;20135;-89
2022/12/27 05:58:35;;;;;;;4.73;2.30;;;9.90;99.90;;;7.77;87.78;100611.06;10482489;28;20061;-84
2022/12/27 06:03:38;;;;;;;4.10;2.83;;;9.90;99.90;;;7.73;87.63;100612.31;10499134;28;20064;-86
2022/12/27 06:08:41;;;;;;;5.07;2.00;;;9.80;99.90;;;7.76;87.83;100624.44;10495578;28;20143;-84
2022/12/27 06:13:51;;;;;;;3.17;2.10;;;9.80;99.90;;;7.69;87.78;100629.44;10506252;28;20053;-84
2022/12/27 06:18:54;;;;;;;1.93;1.43;;;9.80;99.90;;;7.71;87.41;100632.78;10501679;28;20052;-88
2022/12/27 06:23:57;;;;;;;2.03;0.90;;;9.80;99.90;;;7.77;87.66;100631.41;10479018;28;20056;-87
2022/12/27 06:29:01;;;;;;;1.80;1.03;;;9.80;99.90;;;7.79;87.28;100646.16;10525319;28;20068;-82
2022/12/27 06:34:05;;;;;;;3.60;1.70;;;9.80;99.90;;;7.76;87.36;100648.25;10489608;28;20060;-83
2022/12/27 06:39:08;;;;;;;4.03;2.23;;;9.80;99.90;;;7.75;87.42;100647.41;10497212;28;20508;-86
2022/12/27 06:44:11;;;;;;;1.70;0.93;;;9.90;99.90;;;7.87;86.98;100660.50;10483738;28;20061;-86
2022/12/27 06:49:14;;;;;;;1.93;0.93;;;10.00;99.90;;;8.00;85.76;100679.59;10495841;28;20111;-83
2022/12/27 06:54:17;;;;;;;3.50;2.47;;;10.10;99.90;;;8.24;84.88;100687.94;10472651;28;20067;-85
2022/12/27 06:59:21;;;;;;;2.43;1.20;;;10.20;99.90;;;8.50;83.83;100690.00;10491212;28;20147;-84
2022/12/27 07:04:24;;;;;;;1.63;0.90;;;10.40;99.90;;;8.69;83.06;100694.44;10481388;28;20059;-82
2022/12/27 07:09:28;;;;;;;1.07;0.60;;;10.60;99.90;;;8.67;82.12;100714.94;10472711;28;22085;-81
2022/12/27 07:14:31;;;;;;;1.47;0.90;;;10.60;99.90;;;8.55;81.69;100716.91;10486395;28;20487;-82
2022/12/27 07:19:34;;;;;;;1.40;0.73;;;10.50;99.90;;;8.40;81.73;100731.59;10488243;28;20089;-87
2022/12/27 07:24:37;;;;;;;1.63;0.90;;;10.50;99.90;;;8.22;82.34;100736.72;10512672;28;20060;-85
2022/12/27 07:29:40;;;;;;;2.27;1.20;;;10.30;99.90;;;8.05;81.83;100746.19;10471596;28;20215;-85
2022/12/27 07:34:47;;;;;;;0.93;0.60;;;10.20;99.90;;;8.15;81.75;100759.41;10483144;28;20504;-85
2022/12/27 07:39:50;;;;;;;1.60;0.80;;;10.10;99.90;;;8.43;80.41;100760.44;10476476;28;20819;-85
2022/12/27 07:44:53;;;;;;;1.50;0.60;;;10.30;99.90;;;8.71;78.83;100753.44;10506201;28;20060;-86
2022/12/27 07:49:56;;;;;;;1.20;0.80;;;10.40;99.90;;;9.00;77.55;100759.50;10514947;28;20083;-86
2022/12/27 07:54:59;;;;;;;1.00;0.57;;;10.60;99.90;;;9.06;76.51;100776.66;10503527;28;20572;-86
2022/12/27 08:00:04;;;;;;;1.87;0.80;;;10.70;99.90;;;9.08;75.77;100803.84;10479464;28;20061;-86
2022/12/27 08:05:07;;;;;;;1.20;0.60;;;10.80;99.90;;;8.83;75.20;100811.44;10473886;28;20065;-87
2022/12/27 08:10:10;;;;;;;2.43;1.70;;;10.70;99.90;;;8.61;76.05;100813.53;10506136;28;20061;-83
2022/12/27 08:15:14;;;;;;;1.50;1.17;;;10.60;99.90;;;8.55;76.37;100836.13;10503673;28;20056;-85
2022/12/27 08:20:17;;;;;;;1.70;0.80;;;10.60;99.90;;;8.39;75.80;100859.66;10501424;28;20122;-84
2022/12/27 08:25:20;;;;;;;2.23;0.90;;;10.50;99.90;;;8.16;76.56;100865.19;10467343;28;20068;-84
2022/12/27 08:30:24;;;;;;;0.97;0.60;;;10.20;99.90;;;7.97;77.11;100879.19;10497812;28;20136;-84
2022/12/27 08:35:27;;;;;;;1.87;1.33;;;10.10;99.90;;;7.85;77.19;100892.66;10466951;28;20080;-83
2022/12/27 08:40:50;;;;;;;1.80;1.00;;;9.90;99.90;;;7.90;77.42;100911.59;10478202;28;20202;-85
2022/12/27 08:45:58;;;;;;;9.97;5.50;;;10.00;99.90;;;7.90;77.36;100909.81;10516619;27;20052;-81
2022/12/27 08:51:07;;;;;;;1.50;0.83;;;10.00;99.90;;;7.89;77.28;100941.69;10519097;27;20053;-89
2022/12/27 08:56:16;;;;;;;1.07;0.60;;;10.00;99.90;;;7.81;77.55;100938.88;10534023;28;20063;-89
2022/12/27 09:01:19;;;;;;;0.73;0.53;;;10.00;99.90;;;7.73;78.03;100911.25;10533777;28;20052;-84
2022/12/27 09:06:24;;;;;;;1.63;0.93;;;9.90;99.90;;;7.65;78.15;100923.47;10498373;28;20402;-88
2022/12/27 09:11:33;;;;;;;1.50;0.60;;;9.80;99.90;;;7.59;78.57;100924.00;10550687;28;20067;-86
2022/12/27 09:16:37;;;;;;;1.67;0.70;;;9.70;99.90;;;7.56;78.16;100919.81;10536151;28;20118;-86
2022/12/27 09:21:42;;;;;;;1.57;0.93;;;9.70;99.90;;;7.59;77.30;100924.84;10561914;28;20068;-85
2022/12/27 09:26:45;;;;;;;0.70;0.47;;;9.70;99.90;;;7.56;76.93;100935.69;10516793;28;20056;-82
2022/12/27 09:31:48;;;;;;;1.07;0.63;;;9.60;99.90;;;7.49;75.85;100942.44;10539811;28;20056;-81
2022/12/27 09:36:51;;;;;;;0.80;0.40;;;9.60;99.90;;;7.41;74.72;100937.81;10535640;28;20064;-83
2022/12/27 09:42:17;;;;;;;0.70;0.40;;;9.50;99.90;;;7.40;72.39;100945.88;10565881;27;20059;-84
2022/12/27 09:47:59;;;;;;;1.67;0.63;;;9.50;99.90;;;7.45;71.11;100964.84;10539381;28;20071;-92
2022/12/27 09:53:20;;;;;;;0.57;0.33;;;9.50;99.90;;;7.47;69.29;100954.97;10536963;28;20485;-93
2022/12/27 09:58:49;;;;;;;0.83;0.40;;;9.50;99.40;;;7.52;68.92;100968.66;10521468;28;20070;-90
2022/12/27 10:03:52;;;;;;;0.40;0.30;;;9.60;99.30;;;7.64;67.36;100978.19;10498921;28;20066;-88
2022/12/27 10:09:30;;;;;;;1.07;0.40;;;9.70;98.20;;;7.75;66.17;100978.13;10553355;28;20064;-92
2022/12/27 10:14:58;;;;;;;1.27;0.67;;;9.80;97.60;;;7.86;65.72;100990.44;10542983;28;20052;-92
2022/12/27 10:20:46;;;;;;;1.97;0.40;;;9.90;96.80;;;7.75;63.71;100996.66;10549516;28;20090;-93
2022/12/27 10:25:58;;;;;;;1.20;0.60;;;9.90;95.10;;;7.60;63.09;101005.84;10520892;28;20184;-92
2022/12/27 10:31:03;;;;;;;1.27;0.50;;;9.70;94.70;;;7.36;62.87;101015.84;10536860;28;20098;-93
2022/12/27 10:36:29;;;;;;;0.90;0.43;;;9.50;94.60;;;7.19;62.52;101027.81;10520545;28;20147;-93
2022/12/27 10:42:06;;;;;;;1.10;0.30;;;9.40;94.50;;;7.11;62.37;101023.16;10512672;28;20068;-91
2022/12/27 10:47:10;;;;;;;0.87;0.40;;;9.30;93.90;;;7.19;61.88;101018.06;10530958;28;20482;-89
2022/12/27 10:52:13;;;;;;;0.93;0.40;;;9.30;93.50;;;7.38;62.21;101013.94;10532095;28;20059;-86
2022/12/27 10:57:32;;;;;;;0.70;0.33;;;9.50;93.10;;;7.76;61.02;101014.19;10523459;28;20057;-85
2022/12/27 11:02:55;;;;;;;2.40;1.50;;;9.90;92.30;;;7.92;60.24;101026.13;10504973;28;20094;-85
2022/12/27 11:08:00;;;;;;;1.07;0.60;;;10.10;92.40;;;7.70;58.65;101022.66;10503809;28;20071;-90
2022/12/27 11:13:05;;;;;;;1.50;0.63;;;9.90;90.70;;;7.31;58.92;101024.16;10529524;28;20067;-85
2022/12/27 11:18:18;;;;;;;0.80;0.40;;;9.50;90.80;;;7.00;60.29;101009.13;10524210;28;20063;-86
2022/12/27 11:23:28;;;;;;;2.57;1.27;;;9.10;91.80;;;6.82;60.36;101003.53;10523539;28;20063;-84
2022/12/27 11:28:43;;;;;;;1.73;0.63;;;9.00;91.30;;;6.64;59.26;101022.53;10497898;28;20053;-84
2022/12/27 11:33:51;;;;;;;2.70;1.63;;;8.80;90.50;;;6.58;60.08;101017.75;10533869;28;20095;-84
2022/12/27 11:38:55;;;;;;;1.70;0.70;;;8.70;91.30;;;6.57;60.16;101029.28;10526245;28;20052;-85
2022/12/27 11:44:13;;;;;;;2.60;1.40;;;8.70;91.30;;;6.54;60.22;101026.91;10521062;28;20064;-85
2022/12/27 11:49:27;;;;;;;1.13;0.60;;;8.70;91.30;;;6.53;60.61;101032.28;10521556;28;20521;-84
2022/12/27 11:55:10;;;;;;;2.87;1.10;;;8.70;91.30;;;6.52;60.54;101028.78;10537028;28;20060;-84
2022/12/27 12:00:25;;;;;;;1.70;0.80;;;8.70;91.60;;;6.49;59.98;101049.34;10535319;28;20322;-84
2022/12/27 12:06:21;;;;;;;1.63;0.73;;;8.60;90.60;;;6.36;59.04;101055.59;10535383;28;20061;-84
2022/12/27 12:11:50;;;;;;;1.50;0.40;;;8.50;88.90;;;6.21;55.77;101064.69;10526577;28;20427;-86
2022/12/27 12:17:41;;;;;;;1.50;0.50;;;8.30;83.50;;;6.10;55.77;101047.03;10550381;28;20059;-84
2022/12/27 12:23:18;;;;;;;1.83;0.90;;;8.20;85.60;;;6.04;56.75;101047.50;10533440;28;20572;-84
2022/12/27 12:29:05;;;;;;;1.77;0.47;;;8.20;86.80;;;5.99;56.17;101051.44;10492792;28;20056;-84
2022/12/27 12:34:36;;;;;;;1.47;0.40;;;8.10;84.00;;;5.92;56.15;101053.72;10557618;28;20079;-85
2022/12/27 12:40:15;;;;;;;2.60;0.70;;;8.10;84.80;;;5.84;55.78;101064.00;10529148;28;20508;-85
2022/12/27 12:45:47;;;;;;;1.53;0.60;;;8.00;83.70;;;5.74;55.51;101063.00;10536313;28;20052;-86
2022/12/27 12:51:13;;;;;;;1.40;0.63;;;7.90;83.00;;;5.64;55.40;101063.69;10551946;28;20080;-84
2022/12/27 12:56:47;;;;;;;1.23;0.60;;;7.80;83.00;;;5.55;55.45;101074.91;10543864;28;20056;-84
2022/12/27 13:02:50;;;;;;;2.93;1.03;;;7.70;82.80;;;5.46;55.99;101078.25;10552857;28;20091;-85
2022/12/27 13:08:17;;;;;;;1.47;0.83;;;7.60;83.70;;;5.42;56.68;101079.44;10537249;28;20060;-85
2022/12/27 13:13:29;;;;;;;3.57;0.90;;;7.60;84.80;;;5.35;56.69;101073.78;10565076;28;20516;-84
2022/12/27 13:18:47;;;;;;;1.47;0.73;;;7.50;84.40;;;5.30;56.96;101090.88;10529680;28;20067;-84
2022/12/27 13:24:10;;;;;;;1.57;0.50;;;7.50;85.00;;;5.24;56.54;101102.69;10523901;28;20640;-86
2022/12/27 13:29:41;;;;;;;1.93;0.57;;;7.40;83.70;;;5.17;56.45;101116.44;10554152;28;20056;-84
2022/12/27 13:35:30;;;;;;;1.80;0.90;;;7.40;83.70;;;5.12;57.05;101108.03;10562496;28;20060;-85
2022/12/27 13:40:36;;;;;;;2.63;0.83;;;7.30;84.80;;;5.04;56.73;101121.75;10525009;28;20079;-83
2022/12/27 13:46:04;;;;;;;2.00;0.70;;;7.30;83.80;;;4.98;57.28;101107.22;10532993;28;20060;-83
2022/12/27 13:51:34;;;;;;;2.33;1.00;;;7.20;84.60;;;4.93;57.63;101117.25;10544352;28;20508;-85
2022/12/27 13:57:18;;;;;;;3.43;1.00;;;7.10;84.80;;;4.88;57.74;101107.97;10525425;28;20056;-84
2022/12/27 14:02:31;;;;;;;1.77;1.00;;;7.10;85.10;;;4.80;57.45;101112.00;10530111;28;20059;-91
2022/12/27 14:07:53;;;;;;;4.37;1.20;;;7.00;83.70;;;4.72;57.49;101126.66;10534970;28;20056;-88
2022/12/27 14:13:08;;;;;;;2.47;1.15;;;6.90;84.50;;;4.62;57.99;101118.56;10544399;28;20060;-88
2022/12/27 14:19:06;;;;;;;1.63;0.50;;;6.80;84.90;;;4.52;58.15;101138.56;10542656;28;20049;-85
2022/12/27 14:24:39;;;;;;;2.40;1.10;;;6.70;85.30;;;4.42;58.62;101143.63;10523918;28;20059;-89
2022/12/27 14:30:26;;;;;;;2.15;1.20;;;6.60;86.00;;;4.27;58.93;101163.09;10527432;28;20053;-87
2022/12/27 14:36:18;;;;;;;2.63;0.60;;;6.50;86.40;;;4.14;59.51;101175.38;10556534;27;20063;-84
2022/12/27 14:42:34;;;;;;;1.80;0.77;;;6.40;87.00;;;4.08;59.78;101187.16;10535719;28;20067;-81
2022/12/27 14:48:10;;;;;;;1.40;0.40;;;6.30;87.00;;;4.01;59.98;101191.97;10475997;28;20048;-81
2022/12/27 14:53:49;;;;;;;1.43;0.60;;;6.30;87.40;;;3.91;60.28;101204.06;10526648;28;20183;-87
2022/12/27 14:59:14;;;;;;;1.10;0.67;;;6.20;87.50;;;3.81;60.47;101205.59;10531968;28;20567;-88
2022/12/27 15:04:38;;;;;;;3.07;0.80;;;6.10;87.70;;;3.68;61.12;101208.16;10510096;28;20122;-93
2022/12/27 15:10:37;;;;;;;2.10;1.00;;;6.10;88.30;;;3.46;61.81;101218.38;10565584;28;20106;-89
2022/12/27 15:16:14;;;;;;;1.67;0.87;;;5.90;89.10;;;3.25;62.58;101225.81;10533425;28;20056;-89
2022/12/27 15:21:36;;;;;;;1.70;1.00;;;5.60;89.50;;;3.16;62.58;101210.63;10513736;28;20064;-89
2022/12/27 15:27:19;;;;;;;1.93;1.40;;;5.50;89.50;;;3.10;62.67;101216.25;10536866;28;20053;-89
2022/12/27 15:32:46;;;;;;;5.40;0.83;;;5.40;89.90;;;3.05;62.55;101234.91;10536398;27;20489;-89
2022/12/27 15:38:39;;;;;;;1.25;0.80;;;5.40;89.90;;;2.95;62.68;101237.28;10543488;28;20078;-87
2022/12/27 15:44:11;;;;;;;1.37;0.70;;;5.30;89.50;;;2.88;62.63;101233.34;10462779;28;20155;-89
2022/12/27 15:49:53;;;;;;;3.33;1.10;;;5.20;89.80;;;2.83;62.76;101251.16;10557654;27;20598;-88
2022/12/27 15:55:11;;;;;;;2.92;1.27;;;5.10;89.80;;;2.83;62.79;101255.56;10516890;28;20154;-87
2022/12/27 16:00:30;;;;;;;4.07;1.77;;;5.10;89.50;;;2.81;62.58;101263.50;10528791;28;20496;-88
2022/12/27 16:05:47;;;;;;;4.97;1.80;;;5.10;89.90;;;2.74;62.94;101269.22;10527549;28;20068;-89
2022/12/27 16:10:51;;;;;;;8.03;3.70;;;5.10;90.10;;;2.68;63.19;101273.91;10506113;28;20076;-90
2022/12/27 16:15:54;;;;;;;6.87;3.03;;;5.00;90.20;;;2.59;63.77;101289.38;10525685;28;20596;-90
2022/12/27 16:21:01;;;;;;;4.63;1.90;;;5.00;90.30;;;2.54;63.60;101297.50;10503559;28;20063;-90
2022/12/27 16:26:29;;;;;;;3.10;1.40;;;4.90;90.30;;;2.46;64.14;101304.09;10503057;28;20060;-89
2022/12/27 16:31:36;;;;;;;2.87;1.20;;;4.80;90.50;;;2.40;63.99;101321.91;10502095;28;20106;-89
2022/12/27 16:36:48;;;;;;;7.90;2.33;;;4.80;90.50;;;2.34;64.28;101327.50;10521391;28;20064;-89
2022/12/27 16:41:57;;;;;;;7.83;3.27;;;4.70;90.50;;;2.24;64.52;101334.22;10530783;28;20066;-90
2022/12/27 16:48:00;;;;;;;5.30;1.93;;;4.60;90.70;;;2.05;65.32;101336.19;10553339;28;20056;-89
2022/12/27 16:53:37;;;;;;;6.43;2.90;;;4.50;91.00;;;1.92;65.93;101329.91;10486841;28;20057;-89
2022/12/27 16:58:41;;;;;;;10.37;4.00;;;4.40;91.10;;;1.75;66.11;101329.06;10524651;28;20065;-89
2022/12/27 17:03:48;;;;;;;7.80;3.93;;;4.20;91.20;;;1.60;66.76;101325.50;10529929;28;20194;-89
2022/12/27 17:09:09;;;;;;;6.17;3.80;;;4.10;91.40;;;1.44;67.58;101321.16;10512057;28;20067;-89
2022/12/27 17:14:18;;;;;;;6.57;3.28;;;3.90;91.80;;;1.32;67.84;101323.53;10554726;28;20056;-89
2022/12/27 17:19:56;;;;;;;8.43;3.27;;;3.80;92.00;;;1.23;68.64;101342.31;10528564;28;20570;-89
2022/12/27 17:24:59;;;;;;;10.30;3.70;;;3.70;92.00;;;1.11;68.90;101352.59;10514876;28;20805;-89
2022/12/27 17:30:43;;;;;;;8.53;4.10;;;3.70;92.20;;;0.96;69.19;101344.63;10530967;28;20135;-89
2022/12/27 17:36:11;;;;;;;19.93;7.00;;;3.60;92.20;;;0.84;70.08;101347.84;10514383;28;20060;-88
2022/12/27 17:47:39;;;;;;;16.40;5.57;;;3.30;92.80;;;0.66;71.12;101367.06;10564582;27;20052;-80
2022/12/27 17:58:40;;;;;;;26.60;11.43;;;3.10;93.10;;;0.22;73.11;101363.06;10537072;28;20063;-84
2022/12/27 18:03:46;;;;;;;19.43;8.97;;;2.90;94.10;;;0.05;73.98;101359.56;10526977;28;20472;-84
2022/12/27 18:08:49;;;;;;;11.57;4.10;;;2.60;95.50;;;-0.02;75.10;101359.84;10527020;28;20199;-83
2022/12/27 18:13:55;;;;;;;6.90;3.13;;;2.50;96.20;;;0.07;75.36;101358.59;10523730;28;20392;-83
2022/12/27 18:19:02;;;;;;;8.70;3.00;;;2.60;96.60;;;0.21;75.91;101365.78;10534965;28;20068;-80
2022/12/27 18:24:24;;;;;;;5.00;2.70;;;2.70;96.00;;;0.33;75.61;101365.19;10513998;28;20057;-79
2022/12/27 18:29:28;;;;;;;4.77;2.40;;;2.70;96.10;;;0.44;75.23;101367.28;10527427;28;20067;-83
2022/12/27 18:34:35;;;;;;;5.40;2.33;;;2.90;95.90;;;0.52;74.96;101357.28;10524044;28;20383;-83
2022/12/27 18:39:52;;;;;;;2.50;1.50;;;2.90;95.90;;;0.57;75.05;101357.06;10554588;28;20118;-83
2022/12/27 18:45:03;;;;;;;3.67;1.70;;;3.00;95.90;;;0.66;74.51;101357.47;10553671;28;20056;-83
2022/12/27 18:50:19;;;;;;;4.07;1.30;;;3.10;95.80;;;0.70;74.25;101366.84;10569279;28;20060;-83
2022/12/27 18:55:27;;;;;;;4.43;2.30;;;3.10;96.00;;;0.62;74.49;101366.38;10525036;28;20058;-84
2022/12/27 19:00:31;;;;;;;34.17;12.40;;;3.10;96.20;;;0.60;75.07;101375.22;10546597;28;20064;-84
2022/12/27 19:05:35;;;;;;;17.57;6.27;;;3.10;96.30;;;0.58;75.15;101380.53;10519396;28;20130;-83
2022/12/27 19:10:48;;;;;;;12.97;6.20;;;3.10;96.40;;;0.51;75.77;101379.13;10513259;28;20155;-84
2022/12/27 19:15:52;;;;;;;6.47;2.50;;;3.00;96.40;;;0.58;75.91;101380.53;10527231;28;20400;-83
2022/12/27 19:21:01;;;;;;;16.00;6.60;;;3.00;96.30;;;0.60;75.72;101368.25;10520851;28;20060;-82
2022/12/27 19:26:38;;;;;;;7.77;3.33;;;3.00;96.70;;;0.61;75.76;101358.63;10495282;27;20330;-84
2022/12/27 19:31:52;;;;;;;7.73;3.20;;;3.00;97.00;;;0.59;75.82;101353.44;10523952;28;20056;-83
2022/12/27 19:36:56;;;;;;;10.23;2.83;;;3.00;96.90;;;0.54;75.72;101363.31;10520259;28;20114;-83
2022/12/27 19:42:03;;;;;;;5.17;2.03;;;3.00;96.90;;;0.46;76.62;101362.81;10511357;28;20505;-83
2022/12/27 19:47:13;;;;;;;5.60;2.40;;;2.90;96.90;;;0.52;77.30;101370.34;10507136;27;20057;-83
2022/12/27 19:52:26;;;;;;;4.23;2.10;;;2.90;97.30;;;0.60;77.01;101378.69;10506126;28;20149;-83
2022/12/27 19:57:29;;;;;;;12.03;4.20;;;3.00;97.40;;;0.63;76.91;101380.31;10515498;28;20420;-84
2022/12/27 20:02:32;;;;;;;6.67;2.57;;;3.00;97.40;;;0.54;76.71;101371.16;10530668;28;20052;-83
2022/12/27 20:07:35;;;;;;;3.83;2.10;;;3.00;97.60;;;0.42;77.13;101374.34;10536678;28;20070;-83
2022/12/27 20:12:39;;;;;;;9.33;3.67;;;2.90;97.70;;;0.23;77.54;101375.22;10520029;28;20056;-82
2022/12/27 20:17:42;;;;;;;7.70;2.53;;;2.80;97.50;;;0.21;78.43;101369.22;10513784;28;20417;-84
2022/12/27 20:22:47;;;;;;;3.03;1.30;;;2.70;97.80;;;0.17;79.00;101349.38;10529894;28;20392;-83
2022/12/27 20:27:50;;;;;;;5.30;2.13;;;2.70;98.00;;;0.16;78.64;101357.28;10549682;28;20056;-84
2022/12/27 20:32:53;;;;;;;9.33;4.00;;;2.60;98.10;;;0.09;79.09;101379.41;10537317;28;20067;-84
2022/12/27 20:37:55;;;;;;;9.67;4.97;;;2.60;98.40;;;0.11;79.61;101396.72;10504227;28;20092;-86
2022/12/27 20:42:59;;;;;;;4.97;2.37;;;2.50;98.40;;;0.17;80.10;101385.13;10526248;28;20064;-85
2022/12/27 20:48:04;;;;;;;3.17;2.00;;;2.60;98.70;;;0.13;79.59;101387.06;10522578;28;20516;-82
2022/12/27 20:53:08;;;;;;;5.23;2.53;;;2.60;98.90;;;0.03;80.20;101398.84;10516927;28;20064;-84
2022/12/27 20:58:11;;;;;;;9.07;3.17;;;2.50;98.90;;;0.04;80.36;101390.06;10535868;28;20060;-85
2022/12/27 21:03:14;;;;;;;7.77;3.07;;;2.50;99.00;;;0.00;81.02;101393.78;10537043;28;20577;-85
2022/12/27 21:08:17;;;;;;;4.40;1.97;;;2.50;99.10;;;-0.08;80.91;101381.03;10521129;28;20072;-85
2022/12/27 21:13:20;;;;;;;4.83;1.87;;;2.40;99.40;;;-0.17;81.42;101388.47;10517249;28;20060;-86
2022/12/27 21:18:23;;;;;;;3.43;1.63;;;2.30;99.40;;;-0.28;81.89;101397.63;10516334;28;20528;-86
2022/12/27 21:23:26;;;;;;;3.50;1.33;;;2.20;99.50;;;-0.30;82.09;101411.66;10510858;28;20094;-87
2022/12/27 21:28:29;;;;;;;4.07;2.10;;;2.20;99.90;;;-0.41;82.54;101412.16;10532958;28;20090;-83
2022/12/27 21:33:34;;;;;;;5.43;2.50;;;2.10;99.90;;;-0.48;82.57;101410.75;10506839;28;20459;-85
2022/12/27 21:38:37;;;;;;;5.53;2.53;;;2.10;99.90;;;-0.60;82.61;101413.88;10533366;28;20060;-86
2022/12/27 21:43:42;;;;;;;5.27;2.60;;;2.00;99.90;;;-0.73;82.92;101410.09;10516757;27;20067;-84
2022/12/27 21:48:47;;;;;;;1.77;1.10;;;1.80;99.90;;;-0.76;84.09;101413.69;10511926;28;20060;-85
2022/12/27 21:53:54;;;;;;;3.80;1.40;;;1.80;99.90;;;-0.57;84.49;101424.19;10518243;28;20055;-83
2022/12/27 21:58:58;;;;;;;2.23;1.40;;;1.90;99.90;;;-0.33;84.80;101415.28;10526150;28;20062;-91
2022/12/27 22:04:02;;;;;;;4.20;1.53;;;2.10;99.90;;;-0.12;84.57;101412.59;10525861;28;20056;-88
2022/12/27 22:09:09;;;;;;;4.50;1.67;;;2.30;99.90;;;0.01;83.83;101415.53;10519059;28;20088;-88
2022/12/27 22:14:12;;;;;;;5.10;2.13;;;2.40;99.90;;;0.08;83.50;101417.78;10532960;28;20130;-86
2022/12/27 22:19:15;;;;;;;7.77;2.37;;;2.50;99.90;;;0.07;83.04;101420.47;10525529;28;20061;-87
2022/12/27 22:24:18;;;;;;;3.93;2.23;;;2.50;99.90;;;0.09;82.71;101419.47;10520223;28;20060;-88
2022/12/27 22:29:22;;;;;;;4.67;1.97;;;2.50;99.90;;;0.06;82.83;101423.97;10542174;28;20083;-88
2022/12/27 22:34:25;;;;;;;3.97;2.03;;;2.50;99.90;;;-0.01;82.63;101419.03;10543490;28;20133;-88
2022/12/27 22:39:28;;;;;;;4.97;2.23;;;2.40;99.90;;;-0.07;82.70;101411.47;10529298;28;20180;-88
2022/12/27 22:44:32;;;;;;;4.43;2.23;;;2.40;99.90;;;-0.08;83.15;101401.94;10554823;28;20071;-87
2022/12/27 22:49:35;;;;;;;6.77;2.13;;;2.30;99.90;;;-0.01;83.57;101395.50;10529924;28;20066;-87
2022/12/27 22:54:38;;;;;;;6.83;2.00;;;2.30;99.90;;;0.10;83.04;101405.47;10536949;28;20511;-89
2022/12/27 23:00:02;;;;;;;3.23;1.80;;;2.40;99.90;;;0.15;83.01;101403.50;10541459;28;20422;-88
2022/12/27 23:05:06;;;;;;;4.20;1.90;;;2.50;99.90;;;0.14;82.15;101399.19;10513824;28;20090;-85
2022/12/27 23:10:09;;;;;;;5.83;1.77;;;2.50;99.90;;;0.15;82.44;101392.19;10545050;28;20064;-85
2022/12/27 23:15:12;;;;;;;3.33;1.57;;;2.50;99.90;;;0.15;82.64;101398.28;10535105;28;20134;-85
2022/12/27 23:20:15;;;;;;;3.40;1.80;;;2.50;99.90;;;0.09;82.48;101401.19;10562835;28;20087;-86
2022/12/27 23:25:18;;;;;;;3.90;1.50;;;2.50;99.90;;;0.02;82.49;101391.94;10549934;28;20063;-86
2022/12/27 23:30:21;;;;;;;6.70;3.37;;;2.40;99.90;;;-0.13;82.18;101382.16;10537978;28;20067;-86
2022/12/27 23:35:24;;;;;;;7.87;4.00;;;2.40;99.90;;;-0.32;82.85;101390.00;10535519;28;20056;-86
2022/12/27 23:40:28;;;;;;;10.00;4.27;;;2.20;99.90;;;-0.50;83.27;101388.22;10523846;28;20522;-86